Latest Weather Observations for Blackall

IDQ60801

Issued at 4:32 pm EST Wednesday 5 August 2015 (issued every 30 minutes, with the page automatically refreshed every 10 minutes)

About weather observations | Map of weather stations | Latest weather observations for QLD | Other Formats
Station Details ID: 036034 Name: BLACKALL AIRPORT Lat: -24.43 Lon: 145.43 Height: 281.3 m
Data from the previous 72 hours. | See also: Recent months at Blackall
Date/Time
EST
Temp
°C
App
Temp
°C
Dew
Point
Rel
Hum
%
Delta-T
°C
Wind Press
QNH
hPa
Press
MSL
hPa
Rain
since 9 am
mm
Dir
 
Spd
km/h
Gust
km/h
Spd
kts
Gust
kts
05/04:30pm 19.4 13.3 -4.1 20 9.6 SSW 19 26 10 14 1019.0 1018.5 0.0
05/04:00pm 19.8 13.8 -3.1 21 9.6 SSW 19 26 10 14 1019.0 1018.5 0.0
05/03:30pm 19.4 13.8 -2.8 22 9.4 SSW 17 26 9 14 1018.9 1018.4 0.0
05/03:00pm 19.5 14.0 -2.2 23 9.2 S 17 28 9 15 1018.9 1018.4 0.0
05/02:30pm 19.1 14.5 -1.4 25 8.9 SSW 13 20 7 11 1019.1 1018.6 0.0
05/02:00pm 18.6 13.2 -1.3 26 8.6 S 17 26 9 14 1019.6 1019.1 0.0
05/01:30pm 18.7 14.5 -0.7 27 8.5 S 11 26 6 14 1020.1 1019.6 0.0
05/01:00pm 17.6 12.2 -1.1 28 8.0 SSW 17 24 9 13 1020.7 1020.2 0.0
05/12:30pm 17.0 12.1 -0.7 30 7.6 SSE 15 24 8 13 1021.3 1020.9 0.0
05/12:00pm 16.5 11.2 -0.7 31 7.3 S 17 24 9 13 1021.9 1021.4 0.0
05/11:30am 16.1 11.2 -0.6 32 7.1 S 15 26 8 14 1022.2 1021.7 0.0
05/11:00am 15.4 9.7 -0.4 34 6.7 SSE 19 28 10 15 1022.7 1022.2 0.0
05/10:30am 14.7 9.5 -0.2 36 6.3 SSE 17 28 9 15 1023.1 1022.6 0.0
05/10:00am 13.9 9.0 -0.5 37 6.0 SE 15 22 8 12 1023.2 1022.7 0.0
05/09:30am 12.5 7.2 -0.7 40 5.4 SSE 17 28 9 15 1023.4 1022.9 0.0
05/09:00am 11.3 6.8 -0.5 44 4.8 SSE 13 20 7 11 1023.3 1022.8 0.0
05/08:30am 10.2 6.0 -0.6 47 4.4 SSE 11 17 6 9 1023.1 1022.6 0.0
05/08:00am 8.0 4.1 -1.2 52 3.6 SSE 9 11 5 6 1022.8 1022.3 0.0
05/07:30am 6.6 2.7 -1.3 57 3.0 SSE 9 13 5 7 1022.5 1022.0 0.0
05/07:00am 3.9 -0.4 -1.5 68 2.0 S 11 19 6 10 1022.3 1021.8 0.0
05/06:30am 2.4 -1.4 -4.1 62 2.2 S 7 9 4 5 1022.0 1021.5 0.0
05/06:00am 3.3 -0.9 -3.5 61 2.3 SSW 9 11 5 6 1021.8 1021.3 0.0
05/05:30am 3.7 -0.4 -3.1 61 2.4 S 9 11 5 6 1021.4 1021.0 0.0
05/05:00am 2.8 -1.4 -4.0 61 2.3 S 9 11 5 6 1021.2 1020.8 0.0
05/04:30am 3.8 0.0 -3.9 57 2.7 SSE 7 11 4 6 1021.2 1020.8 0.0
05/04:00am 3.6 -0.6 -3.6 59 2.5 S 9 11 5 6 1021.1 1020.7 0.0
05/03:30am 3.7 -0.2 -5.0 53 2.9 S 7 9 4 5 1021.4 1021.0 0.0
05/03:00am 4.9 1.1 -3.6 54 3.0 SSW 7 9 4 5 1021.5 1021.1 0.0
05/02:30am 4.4 0.5 -4.3 53 3.0 S 7 9 4 5 1021.7 1021.2 0.0
05/02:00am 4.8 0.9 -4.2 52 3.1 SSE 7 9 4 5 1022.0 1021.5 0.0
05/01:30am 5.4 1.5 -4.4 49 3.4 S 7 9 4 5 1022.2 1021.7 0.0
05/01:00am 7.0 3.2 -3.5 47 3.8 SSW 7 9 4 5 1022.3 1021.8 0.0
05/12:30am 8.1 4.4 -3.1 45 4.2 S 7 9 4 5 1022.4 1021.9 0.0
05/12:00am 8.6 4.5 -3.3 43 4.4 SSW 9 13 5 7 1022.2 1021.7 0.0
 
Date/Time
EST
Temp
°C
App
Temp
°C
Dew
Point
Rel
Hum
%
Delta-T
°C
Wind Press
QNH
hPa
Press
MSL
hPa
Rain
since 9 am
mm
Dir
 
Spd
km/h
Gust
km/h
Spd
kts
Gust
kts
04/11:30pm 9.0 4.9 -3.2 42 4.6 S 9 11 5 6 1022.3 1021.8 0.0
04/11:00pm 9.3 5.5 -3.9 39 4.9 S 7 11 4 6 1022.2 1021.7 0.0
04/10:30pm 10.9 6.7 -3.9 35 5.6 S 9 13 5 7 1021.9 1021.4 0.0
04/10:00pm 12.5 7.7 -2.9 34 6.0 SSE 13 19 7 10 1021.9 1021.4 0.0
04/09:30pm 12.9 8.0 -3.0 33 6.3 SSE 13 17 7 9 1022.0 1021.5 0.0
04/09:00pm 12.9 8.4 -3.4 32 6.3 SSE 11 13 6 7 1021.9 1021.4 0.0
04/08:30pm 13.4 9.2 -3.8 30 6.7 S 9 13 5 7 1021.5 1021.1 0.0
04/08:00pm 14.0 9.4 -4.2 28 7.0 S 11 15 6 8 1021.1 1020.7 0.0
04/07:30pm 14.4 9.8 -4.3 27 7.3 S 11 13 6 7 1020.8 1020.4 0.0
04/07:00pm 15.8 11.2 -4.2 25 7.9 S 11 13 6 7 1020.5 1020.0 0.0
04/06:30pm 16.6 11.9 -4.6 23 8.4 S 11 13 6 7 1020.1 1019.6 0.0
04/06:00pm 17.6 12.2 -4.3 22 8.8 S 15 22 8 12 1020.0 1019.5 0.0
04/05:30pm 18.8 12.5 -6.0 18 9.7 S 19 26 10 14 1020.1 1019.6 0.0
04/05:00pm 19.4 12.5 -6.2 17 10.0 S 22 32 12 17 1020.0 1019.5 0.0
04/04:30pm 19.7 12.9 -5.3 18 10.0 S 22 32 12 17 1019.7 1019.2 0.0
04/04:00pm 19.9 13.6 -4.4 19 9.9 S 20 28 11 15 1019.6 1019.1 0.0
04/03:30pm 20.0 12.7 -5.8 17 10.3 S 24 35 13 19 1019.8 1019.3 0.0
04/03:00pm 20.4 14.0 -4.7 18 10.2 S 20 26 11 14 1020.2 1019.7 0.0
04/02:30pm 20.3 14.1 -4.8 18 10.2 SSE 19 30 10 16 1020.5 1020.0 0.0
04/02:00pm 20.4 13.6 -4.7 18 10.2 SSE 22 30 12 16 1020.8 1020.4 0.0
04/01:30pm 19.3 11.8 -4.2 20 9.6 S 26 35 14 19 1021.2 1020.8 0.0
04/01:00pm 18.7 12.2 -2.8 23 9.0 SSE 22 33 12 18 1021.8 1021.3 0.0
04/12:30pm 18.4 11.5 -2.5 24 8.8 SSE 24 33 13 18 1022.5 1022.0 0.0
04/12:00pm 17.5 10.9 -0.2 30 7.7 SSE 24 39 13 21 1023.0 1022.5 0.0
04/11:30am 16.9 10.4 0.5 33 7.2 SE 24 35 13 19 1023.3 1022.8 0.0
04/11:00am 15.9 8.7 0.5 35 6.7 SSE 28 39 15 21 1023.8 1023.3 0.0
04/10:30am 15.0 7.4 0.4 37 6.3 SSE 30 39 16 21 1023.9 1023.5 0.0
04/10:00am 14.3 6.9 1.6 42 5.6 SE 30 41 16 22 1024.0 1023.6 0.0
04/09:30am 13.8 6.8 2.1 45 5.2 SE 28 43 15 23 1023.9 1023.5 0.0
04/09:00am 12.5 5.5 1.8 48 4.6 SE 28 39 15 21 1023.8 1023.3 0.0
04/08:30am 11.4 5.1 1.6 51 4.2 SSE 24 35 13 19 1023.7 1023.2 0.0
04/08:00am 10.5 4.5 1.1 52 3.9 SSE 22 32 12 17 1023.4 1022.9 0.0
04/07:30am 9.8 4.3 0.9 54 3.7 SSE 19 28 10 15 1023.1 1022.6 0.0
04/07:00am 9.3 4.2 0.5 54 3.6 SSE 17 26 9 14 1022.8 1022.3 0.0
04/06:30am 9.4 3.8 0.1 52 3.8 SSE 19 24 10 13 1022.4 1021.9 0.0
04/06:00am 9.5 4.2 -0.4 50 4.0 SSE 17 26 9 14 1022.1 1021.6 0.0
04/05:30am 9.6 4.3 -0.6 49 4.1 SSE 17 22 9 12 1021.7 1021.2 0.0
04/05:00am 9.4 4.5 -0.8 49 4.0 SSE 15 20 8 11 1021.3 1020.9 0.0
04/04:30am 9.4 4.8 -1.0 48 4.1 S 13 17 7 9 1021.4 1021.0 0.0
04/04:00am 9.7 5.5 -1.1 47 4.3 S 11 17 6 9 1021.3 1020.9 0.0
04/03:30am 10.3 5.7 -1.1 45 4.6 S 13 17 7 9 1021.3 1020.9 0.0
04/03:00am 11.0 6.4 -1.1 43 4.9 S 13 17 7 9 1021.0 1020.6 0.0
04/02:30am 11.7 6.8 -0.8 42 5.1 S 15 24 8 13 1021.0 1020.6 0.0
04/02:00am 12.0 6.7 -0.8 41 5.2 S 17 22 9 12 1021.0 1020.6 0.0
04/01:30am 12.5 7.2 -0.7 40 5.4 S 17 22 9 12 1021.1 1020.7 0.0
04/01:00am 12.9 8.3 -0.7 39 5.6 S 13 19 7 10 1021.3 1020.9 0.0
04/12:30am 13.5 8.3 -0.2 39 5.8 S 17 22 9 12 1021.2 1020.8 0.0
04/12:00am 14.0 8.9 1.0 41 5.6 S 17 28 9 15 1021.2 1020.8 0.0
 
Date/Time
EST
Temp
°C
App
Temp
°C
Dew
Point
Rel
Hum
%
Delta-T
°C
Wind Press
QNH
hPa
Press
MSL
hPa
Rain
since 9 am
mm
Dir
 
Spd
km/h
Gust
km/h
Spd
kts
Gust
kts
03/11:30pm 14.5 9.6 2.1 43 5.5 S 17 24 9 13 1021.1 1020.7 0.0
03/11:00pm 15.1 10.0 3.3 45 5.4 S 19 26 10 14 1021.1 1020.7 0.0
03/10:30pm 15.8 10.7 3.9 45 5.6 S 20 30 11 16 1021.0 1020.6 0.0
03/10:00pm 16.3 11.3 4.7 46 5.5 S 20 28 11 15 1020.8 1020.4 0.0
03/09:30pm 16.9 12.0 5.2 46 5.7 S 20 30 11 16 1020.8 1020.4 0.0
03/09:00pm 17.7 12.5 5.3 44 6.1 S 22 35 12 19 1020.8 1020.4 0.0
03/08:30pm 18.5 13.8 5.0 41 6.6 S 19 32 10 17 1020.4 1019.9 0.0
03/08:00pm 19.3 14.5 4.6 38 7.2 S 19 28 10 15 1020.1 1019.6 0.0
03/07:30pm 19.8 15.7 4.3 36 7.6 SSW 15 22 8 12 1019.7 1019.2 0.0
03/07:00pm 20.6 17.2 4.2 34 8.0 SSW 11 15 6 8 1019.4 1018.9 0.0
03/06:30pm 21.7 17.2 4.3 32 8.6 S 17 20 9 11 1019.0 1018.5 0.0
03/06:00pm 22.5 18.4 4.5 31 9.0 S 15 22 8 12 1018.6 1018.1 0.0
03/05:30pm 23.6 18.9 5.0 30 9.4 S 19 28 10 15 1018.3 1017.8 0.0
03/05:00pm 24.4 19.0 4.7 28 10.0 SSW 22 32 12 17 1017.9 1017.4 0.0
03/04:30pm 25.4 20.5 5.1 27 10.4 SSW 20 28 11 15 1017.6 1017.1 0.0
03/04:00pm 25.4 21.1 5.1 27 10.4 SSW 17 22 9 12 1017.6 1017.1 0.0
03/03:30pm 25.5 21.3 5.7 28 10.3 SSW 17 24 9 13 1017.7 1017.3 0.0
03/03:00pm 25.5 22.1 5.7 28 10.3 SW 13 24 7 13 1017.9 1017.4 0.0
03/02:30pm 25.1 21.3 5.8 29 10.0 SSW 15 24 8 13 1018.1 1017.6 0.0
03/02:00pm 24.6 21.1 5.4 29 9.8 S 13 22 7 12 1018.3 1017.8 0.0
03/01:30pm 24.4 21.3 5.7 30 9.6 S 11 20 6 11 1018.7 1018.2 0.0
03/01:00pm 24.3 21.2 5.6 30 9.6 SSW 11 20 6 11 1019.2 1018.7 0.0
03/12:30pm 23.8 20.0 5.7 31 9.3 S 15 22 8 12 1019.7 1019.2 0.0
03/12:00pm 23.1 19.5 5.1 31 9.1 SW 13 20 7 11 1020.0 1019.5 0.0
03/11:30am 22.6 19.8 5.1 32 8.8 SE 9 17 5 9 1020.5 1020.0 0.0
03/11:00am 21.5 18.7 5.0 34 8.2 SSE 9 17 5 9 1020.9 1020.5 0.0
03/10:30am 20.4 16.8 4.8 36 7.7 SSE 13 19 7 10 1021.1 1020.7 0.0
03/10:00am 19.4 15.4 4.7 38 7.2 SSE 15 20 8 11 1021.4 1021.0 0.0
03/09:30am 18.4 13.9 4.2 39 6.8 SSE 17 22 9 12 1021.1 1020.7 0.0
03/09:00am 17.5 13.0 4.1 41 6.4 S 17 22 9 12 1020.8 1020.4 0.0
03/08:30am 16.1 12.3 3.9 44 5.7 SSE 13 19 7 10 1020.5 1020.0 0.0
03/08:00am 13.1 9.9 3.2 51 4.5 S 9 13 5 7 1020.4 1019.9 0.0
03/07:30am 10.3 7.4 2.7 59 3.3 SE 7 9 4 5 1019.8 1019.3 0.0
03/07:00am 9.0 7.3 1.7 60 3.1 CALM 0 0 0 0 1019.4 1018.9 0.0
03/06:30am 9.5 7.8 1.9 59 3.2 CALM 0 0 0 0 1019.0 1018.5 0.0
03/06:00am 10.2 8.5 2.1 57 3.5 CALM 0 0 0 0 1018.9 1018.4 0.0
03/05:30am 11.2 8.8 2.2 54 3.9 SSE 4 13 2 7 1018.9 1018.4 0.0
03/05:00am 11.6 7.3 3.4 57 3.7 SW 15 33 8 18 1018.6 1018.1 0.0
03/04:30am 9.5 7.4 1.9 59 3.2 ENE 2 6 1 3 1017.7 1017.3 0.0
03/04:00am 9.9 6.9 2.0 58 3.4 E 7 9 4 5 1017.7 1017.3 0.0
03/03:30am 10.1 7.1 2.0 57 3.5 ENE 7 9 4 5 1017.9 1017.4 0.0
03/03:00am 11.4 8.4 1.9 52 4.1 ENE 7 9 4 5 1018.2 1017.7 0.0
03/02:30am 13.7 10.5 2.9 48 4.9 ENE 9 11 5 6 1018.3 1017.8 0.0
03/02:00am 14.0 10.8 2.9 47 5.0 NE 9 11 5 6 1018.5 1018.0 0.0
03/01:30am 14.5 11.3 3.0 46 5.2 ENE 9 11 5 6 1018.7 1018.2 0.0
03/01:00am 14.7 11.1 3.2 46 5.3 ENE 11 15 6 8 1019.0 1018.5 0.0
03/12:30am 13.8 10.6 3.3 49 4.8 ENE 9 11 5 6 1019.2 1018.7 0.0
03/12:00am 13.6 10.7 4.7 55 4.2 NE 9 11 5 6 1019.4 1018.9 0.0
 
Date/Time
EST
Temp
°C
App
Temp
°C
Dew
Point
Rel
Hum
%
Delta-T
°C
Wind Press
QNH
hPa
Press
MSL
hPa
Rain
since 9 am
mm
Dir
 
Spd
km/h
Gust
km/h
Spd
kts
Gust
kts
02/11:30pm 12.3 9.6 2.7 52 4.3 ENE 6 9 3 5 1019.5 1019.0 0.0
02/11:00pm 12.9 10.3 3.3 52 4.3 ENE 6 6 3 3 1019.7 1019.2 0.0
02/10:30pm 13.7 11.0 3.5 50 4.7 ENE 7 7 4 4 1019.8 1019.3 0.0
02/10:00pm 14.6 11.8 3.1 46 5.2 NE 7 9 4 5 1019.9 1019.4 0.0
02/09:30pm 15.2 12.2 4.0 47 5.2 NE 9 11 5 6 1019.8 1019.3 0.0
02/09:00pm 15.7 12.8 4.4 47 5.3 NE 9 11 5 6 1019.7 1019.2 0.0
02/08:30pm 16.0 13.6 4.1 45 5.6 NE 6 7 3 4 1019.7 1019.2 0.0
02/08:00pm 16.9 15.6 4.3 43 6.0 CALM 0 0 0 0 1019.4 1018.9 0.0
02/07:30pm 17.7 16.3 3.6 39 6.7 CALM 0 0 0 0 1019.2 1018.7 0.0
02/07:00pm 19.4 17.9 3.2 34 7.7 CALM 0 0 0 0 1019.0 1018.5 0.0
02/06:30pm 21.5 19.5 4.6 33 8.4 NNW 4 6 2 3 1018.9 1018.4 0.0
02/06:00pm 23.5 20.3 4.9 30 9.4 N 11 13 6 7 1018.6 1018.1 0.0
02/05:30pm 25.5 21.9 5.1 27 10.5 NNW 13 19 7 10 1018.5 1018.0 0.0
02/05:00pm 26.3 22.4 5.3 26 10.9 NNW 15 19 8 10 1018.4 1017.9 0.0

Other Formats:

Comma delimited format used in spreadsheet applications
http://www.bom.gov.au/fwo/IDQ60801/IDQ60801.95351.axf

JavaScript Object Notation format (JSON) in row-major order
http://www.bom.gov.au/fwo/IDQ60801/IDQ60801.95351.json